sensor_id;sensor_type;location;lat;lon;timestamp;P1;durP1;ratioP1;P2;durP2;ratioP2
55633;SDS011;41504;53.162;6.788;2022-08-01T00:00:32;7.55;;;4.50;;
55633;SDS011;41504;53.162;6.788;2022-08-01T00:02:58;8.50;;;5.03;;
55633;SDS011;41504;53.162;6.788;2022-08-01T00:05:24;8.80;;;4.53;;
55633;SDS011;41504;53.162;6.788;2022-08-01T00:07:50;7.13;;;4.65;;
55633;SDS011;41504;53.162;6.788;2022-08-01T00:10:16;7.60;;;4.22;;
55633;SDS011;41504;53.162;6.788;2022-08-01T00:12:43;9.43;;;5.00;;
55633;SDS011;41504;53.162;6.788;2022-08-01T00:15:10;8.13;;;4.28;;
55633;SDS011;41504;53.162;6.788;2022-08-01T00:17:41;6.88;;;4.18;;
55633;SDS011;41504;53.162;6.788;2022-08-01T00:20:08;8.23;;;4.10;;
55633;SDS011;41504;53.162;6.788;2022-08-01T00:22:36;8.77;;;3.97;;
55633;SDS011;41504;53.162;6.788;2022-08-01T00:25:02;9.13;;;4.10;;
55633;SDS011;41504;53.162;6.788;2022-08-01T00:27:30;7.07;;;3.53;;
55633;SDS011;41504;53.162;6.788;2022-08-01T00:29:56;7.20;;;4.00;;
55633;SDS011;41504;53.162;6.788;2022-08-01T00:32:22;8.40;;;3.85;;
55633;SDS011;41504;53.162;6.788;2022-08-01T00:34:48;9.65;;;3.80;;
55633;SDS011;41504;53.162;6.788;2022-08-01T00:37:14;8.30;;;3.70;;
55633;SDS011;41504;53.162;6.788;2022-08-01T00:39:40;7.72;;;3.83;;
55633;SDS011;41504;53.162;6.788;2022-08-01T00:42:06;8.95;;;3.80;;
55633;SDS011;41504;53.162;6.788;2022-08-01T00:44:32;7.28;;;3.40;;
55633;SDS011;41504;53.162;6.788;2022-08-01T00:46:58;6.18;;;3.70;;
55633;SDS011;41504;53.162;6.788;2022-08-01T00:49:24;7.28;;;3.80;;
55633;SDS011;41504;53.162;6.788;2022-08-01T00:51:50;5.70;;;3.70;;
55633;SDS011;41504;53.162;6.788;2022-08-01T00:54:16;8.57;;;3.53;;
55633;SDS011;41504;53.162;6.788;2022-08-01T00:56:42;8.35;;;3.75;;
55633;SDS011;41504;53.162;6.788;2022-08-01T00:59:08;7.18;;;3.60;;
55633;SDS011;41504;53.162;6.788;2022-08-01T01:01:35;7.72;;;3.78;;
55633;SDS011;41504;53.162;6.788;2022-08-01T01:04:01;5.72;;;3.10;;
55633;SDS011;41504;53.162;6.788;2022-08-01T01:14:44;7.90;;;3.90;;
55633;SDS011;41504;53.162;6.788;2022-08-01T01:17:45;6.80;;;3.53;;
55633;SDS011;41504;53.162;6.788;2022-08-01T01:20:12;6.47;;;3.65;;
55633;SDS011;41504;53.162;6.788;2022-08-01T01:22:46;6.45;;;3.75;;
55633;SDS011;41504;53.162;6.788;2022-08-01T01:28:02;6.45;;;4.05;;
55633;SDS011;41504;53.162;6.788;2022-08-01T01:30:52;6.50;;;3.42;;
55633;SDS011;41504;53.162;6.788;2022-08-01T01:33:20;8.07;;;4.60;;
55633;SDS011;41504;53.162;6.788;2022-08-01T01:35:49;8.40;;;3.92;;
55633;SDS011;41504;53.162;6.788;2022-08-01T01:38:28;6.90;;;3.70;;
55633;SDS011;41504;53.162;6.788;2022-08-01T01:40:57;7.15;;;3.28;;
55633;SDS011;41504;53.162;6.788;2022-08-01T01:43:23;8.10;;;3.47;;
55633;SDS011;41504;53.162;6.788;2022-08-01T01:45:51;4.97;;;2.67;;
55633;SDS011;41504;53.162;6.788;2022-08-01T01:48:19;5.32;;;2.30;;
55633;SDS011;41504;53.162;6.788;2022-08-01T01:50:47;6.20;;;2.55;;
55633;SDS011;41504;53.162;6.788;2022-08-01T01:53:15;5.80;;;2.33;;
55633;SDS011;41504;53.162;6.788;2022-08-01T01:55:43;5.80;;;2.33;;
55633;SDS011;41504;53.162;6.788;2022-08-01T01:58:12;6.65;;;2.40;;
55633;SDS011;41504;53.162;6.788;2022-08-01T02:00:39;4.40;;;2.20;;
55633;SDS011;41504;53.162;6.788;2022-08-01T02:03:07;8.13;;;2.58;;
55633;SDS011;41504;53.162;6.788;2022-08-01T02:05:35;6.00;;;2.03;;
55633;SDS011;41504;53.162;6.788;2022-08-01T02:08:03;8.00;;;2.67;;
55633;SDS011;41504;53.162;6.788;2022-08-01T02:10:31;6.20;;;2.28;;
55633;SDS011;41504;53.162;6.788;2022-08-01T02:12:58;6.80;;;2.42;;
55633;SDS011;41504;53.162;6.788;2022-08-01T02:15:28;5.63;;;2.30;;
55633;SDS011;41504;53.162;6.788;2022-08-01T02:17:55;5.57;;;2.33;;
55633;SDS011;41504;53.162;6.788;2022-08-01T02:20:22;5.63;;;2.25;;
55633;SDS011;41504;53.162;6.788;2022-08-01T02:22:53;8.27;;;2.83;;
55633;SDS011;41504;53.162;6.788;2022-08-01T02:25:33;8.18;;;2.42;;
55633;SDS011;41504;53.162;6.788;2022-08-01T02:28:07;7.95;;;2.20;;
55633;SDS011;41504;53.162;6.788;2022-08-01T02:30:38;6.97;;;2.38;;
55633;SDS011;41504;53.162;6.788;2022-08-01T02:33:17;6.15;;;2.00;;
55633;SDS011;41504;53.162;6.788;2022-08-01T02:35:48;6.88;;;2.20;;
55633;SDS011;41504;53.162;6.788;2022-08-01T02:38:16;5.82;;;1.98;;
55633;SDS011;41504;53.162;6.788;2022-08-01T02:40:46;3.40;;;1.63;;
55633;SDS011;41504;53.162;6.788;2022-08-01T02:43:15;4.55;;;1.35;;
55633;SDS011;41504;53.162;6.788;2022-08-01T02:45:45;4.25;;;1.70;;
55633;SDS011;41504;53.162;6.788;2022-08-01T02:48:14;5.72;;;1.90;;
55633;SDS011;41504;53.162;6.788;2022-08-01T02:50:43;6.63;;;1.58;;
55633;SDS011;41504;53.162;6.788;2022-08-01T02:53:12;4.38;;;1.50;;
55633;SDS011;41504;53.162;6.788;2022-08-01T02:55:39;4.22;;;1.77;;
55633;SDS011;41504;53.162;6.788;2022-08-01T02:58:08;6.97;;;2.03;;
55633;SDS011;41504;53.162;6.788;2022-08-01T03:00:35;4.18;;;1.55;;
55633;SDS011;41504;53.162;6.788;2022-08-01T03:03:02;4.80;;;1.50;;
55633;SDS011;41504;53.162;6.788;2022-08-01T03:05:31;5.05;;;1.70;;
55633;SDS011;41504;53.162;6.788;2022-08-01T03:07:59;6.75;;;2.15;;
55633;SDS011;41504;53.162;6.788;2022-08-01T03:10:27;7.82;;;2.17;;
55633;SDS011;41504;53.162;6.788;2022-08-01T03:12:54;6.70;;;2.10;;
55633;SDS011;41504;53.162;6.788;2022-08-01T03:15:22;6.53;;;2.10;;
55633;SDS011;41504;53.162;6.788;2022-08-01T03:17:50;8.20;;;2.22;;
55633;SDS011;41504;53.162;6.788;2022-08-01T03:20:18;7.30;;;2.15;;
55633;SDS011;41504;53.162;6.788;2022-08-01T03:22:46;6.55;;;2.20;;
55633;SDS011;41504;53.162;6.788;2022-08-01T03:25:14;8.02;;;2.75;;
55633;SDS011;41504;53.162;6.788;2022-08-01T03:27:45;7.80;;;2.58;;
55633;SDS011;41504;53.162;6.788;2022-08-01T03:30:16;8.50;;;2.58;;
55633;SDS011;41504;53.162;6.788;2022-08-01T03:32:42;7.82;;;2.53;;
55633;SDS011;41504;53.162;6.788;2022-08-01T03:35:08;8.18;;;2.53;;
55633;SDS011;41504;53.162;6.788;2022-08-01T03:37:36;10.10;;;3.05;;
55633;SDS011;41504;53.162;6.788;2022-08-01T03:40:13;10.75;;;3.08;;
55633;SDS011;41504;53.162;6.788;2022-08-01T03:42:52;9.13;;;2.90;;
55633;SDS011;41504;53.162;6.788;2022-08-01T03:45:25;10.40;;;2.80;;
55633;SDS011;41504;53.162;6.788;2022-08-01T03:48:01;7.53;;;2.60;;
55633;SDS011;41504;53.162;6.788;2022-08-01T03:50:30;7.03;;;2.95;;
55633;SDS011;41504;53.162;6.788;2022-08-01T03:52:59;9.40;;;2.67;;
55633;SDS011;41504;53.162;6.788;2022-08-01T03:55:27;12.77;;;2.95;;
55633;SDS011;41504;53.162;6.788;2022-08-01T03:57:55;7.82;;;3.03;;
55633;SDS011;41504;53.162;6.788;2022-08-01T04:00:21;7.70;;;3.10;;
55633;SDS011;41504;53.162;6.788;2022-08-01T04:02:48;11.75;;;3.55;;
55633;SDS011;41504;53.162;6.788;2022-08-01T04:05:14;10.50;;;3.22;;
55633;SDS011;41504;53.162;6.788;2022-08-01T04:07:44;9.55;;;3.35;;
55633;SDS011;41504;53.162;6.788;2022-08-01T04:10:11;10.82;;;2.78;;
55633;SDS011;41504;53.162;6.788;2022-08-01T04:12:37;10.93;;;3.50;;
55633;SDS011;41504;53.162;6.788;2022-08-01T04:15:04;9.73;;;2.92;;
55633;SDS011;41504;53.162;6.788;2022-08-01T04:17:30;9.00;;;3.08;;
55633;SDS011;41504;53.162;6.788;2022-08-01T04:19:56;13.35;;;3.05;;
55633;SDS011;41504;53.162;6.788;2022-08-01T04:22:22;10.32;;;2.70;;
55633;SDS011;41504;53.162;6.788;2022-08-01T04:24:48;9.15;;;3.00;;
55633;SDS011;41504;53.162;6.788;2022-08-01T04:27:19;9.73;;;2.53;;
55633;SDS011;41504;53.162;6.788;2022-08-01T04:29:49;9.82;;;3.33;;
55633;SDS011;41504;53.162;6.788;2022-08-01T04:32:20;9.47;;;3.00;;
55633;SDS011;41504;53.162;6.788;2022-08-01T04:34:47;9.60;;;3.08;;
55633;SDS011;41504;53.162;6.788;2022-08-01T04:37:14;10.48;;;3.38;;
55633;SDS011;41504;53.162;6.788;2022-08-01T04:39:42;9.07;;;3.33;;
55633;SDS011;41504;53.162;6.788;2022-08-01T04:42:09;8.95;;;2.90;;
55633;SDS011;41504;53.162;6.788;2022-08-01T04:44:36;10.50;;;3.20;;
55633;SDS011;41504;53.162;6.788;2022-08-01T04:47:03;10.13;;;2.97;;
55633;SDS011;41504;53.162;6.788;2022-08-01T04:49:33;9.90;;;2.92;;
55633;SDS011;41504;53.162;6.788;2022-08-01T04:51:59;12.52;;;3.20;;
55633;SDS011;41504;53.162;6.788;2022-08-01T04:54:26;11.43;;;2.80;;
55633;SDS011;41504;53.162;6.788;2022-08-01T04:56:53;12.15;;;3.30;;
55633;SDS011;41504;53.162;6.788;2022-08-01T04:59:25;12.97;;;2.97;;
55633;SDS011;41504;53.162;6.788;2022-08-01T05:02:07;16.33;;;3.25;;
55633;SDS011;41504;53.162;6.788;2022-08-01T05:04:33;10.10;;;3.35;;
55633;SDS011;41504;53.162;6.788;2022-08-01T05:06:59;11.23;;;3.15;;
55633;SDS011;41504;53.162;6.788;2022-08-01T05:09:25;11.77;;;2.92;;
55633;SDS011;41504;53.162;6.788;2022-08-01T05:11:51;13.77;;;3.60;;
55633;SDS011;41504;53.162;6.788;2022-08-01T05:14:17;11.82;;;3.10;;
55633;SDS011;41504;53.162;6.788;2022-08-01T05:16:43;14.27;;;2.83;;
55633;SDS011;41504;53.162;6.788;2022-08-01T05:19:11;12.88;;;3.35;;
55633;SDS011;41504;53.162;6.788;2022-08-01T05:21:36;11.73;;;3.13;;
55633;SDS011;41504;53.162;6.788;2022-08-01T05:24:03;14.63;;;3.08;;
55633;SDS011;41504;53.162;6.788;2022-08-01T05:26:29;13.48;;;3.25;;
55633;SDS011;41504;53.162;6.788;2022-08-01T05:28:55;14.55;;;2.92;;
55633;SDS011;41504;53.162;6.788;2022-08-01T05:31:21;10.77;;;2.75;;
55633;SDS011;41504;53.162;6.788;2022-08-01T05:33:46;18.90;;;3.30;;
55633;SDS011;41504;53.162;6.788;2022-08-01T05:36:12;11.60;;;2.67;;
55633;SDS011;41504;53.162;6.788;2022-08-01T05:38:38;10.60;;;2.90;;
55633;SDS011;41504;53.162;6.788;2022-08-01T05:41:04;11.32;;;2.70;;
55633;SDS011;41504;53.162;6.788;2022-08-01T05:43:30;14.27;;;3.03;;
55633;SDS011;41504;53.162;6.788;2022-08-01T05:45:56;10.52;;;2.53;;
55633;SDS011;41504;53.162;6.788;2022-08-01T05:48:23;13.43;;;3.38;;
55633;SDS011;41504;53.162;6.788;2022-08-01T05:50:49;13.13;;;3.17;;
55633;SDS011;41504;53.162;6.788;2022-08-01T05:53:15;13.15;;;3.03;;
55633;SDS011;41504;53.162;6.788;2022-08-01T05:55:41;11.93;;;3.03;;
55633;SDS011;41504;53.162;6.788;2022-08-01T05:58:07;12.77;;;2.90;;
55633;SDS011;41504;53.162;6.788;2022-08-01T06:00:32;10.88;;;3.35;;
55633;SDS011;41504;53.162;6.788;2022-08-01T06:02:58;16.92;;;3.33;;
55633;SDS011;41504;53.162;6.788;2022-08-01T06:05:24;9.93;;;2.97;;
55633;SDS011;41504;53.162;6.788;2022-08-01T06:07:49;13.23;;;2.97;;
55633;SDS011;41504;53.162;6.788;2022-08-01T06:10:15;12.27;;;3.45;;
55633;SDS011;41504;53.162;6.788;2022-08-01T06:12:41;11.55;;;2.92;;
55633;SDS011;41504;53.162;6.788;2022-08-01T06:15:07;11.35;;;3.20;;
55633;SDS011;41504;53.162;6.788;2022-08-01T06:17:33;11.70;;;3.00;;
55633;SDS011;41504;53.162;6.788;2022-08-01T06:19:59;11.85;;;3.20;;
55633;SDS011;41504;53.162;6.788;2022-08-01T06:22:25;12.73;;;2.90;;
55633;SDS011;41504;53.162;6.788;2022-08-01T06:24:51;12.07;;;3.33;;
55633;SDS011;41504;53.162;6.788;2022-08-01T06:27:17;14.65;;;3.75;;
55633;SDS011;41504;53.162;6.788;2022-08-01T06:29:43;11.15;;;3.30;;
55633;SDS011;41504;53.162;6.788;2022-08-01T06:32:09;11.50;;;3.35;;
55633;SDS011;41504;53.162;6.788;2022-08-01T06:34:35;13.70;;;3.08;;
55633;SDS011;41504;53.162;6.788;2022-08-01T06:37:01;12.50;;;3.47;;
55633;SDS011;41504;53.162;6.788;2022-08-01T06:39:26;13.88;;;3.28;;
55633;SDS011;41504;53.162;6.788;2022-08-01T06:41:52;11.48;;;3.03;;
55633;SDS011;41504;53.162;6.788;2022-08-01T06:44:18;12.73;;;3.10;;
55633;SDS011;41504;53.162;6.788;2022-08-01T06:46:44;14.65;;;3.25;;
55633;SDS011;41504;53.162;6.788;2022-08-01T06:49:09;12.90;;;3.05;;
55633;SDS011;41504;53.162;6.788;2022-08-01T06:51:35;13.05;;;3.30;;
55633;SDS011;41504;53.162;6.788;2022-08-01T06:54:01;14.07;;;3.63;;
55633;SDS011;41504;53.162;6.788;2022-08-01T06:56:27;13.98;;;3.13;;
55633;SDS011;41504;53.162;6.788;2022-08-01T06:58:53;9.55;;;3.15;;
55633;SDS011;41504;53.162;6.788;2022-08-01T07:01:21;11.43;;;2.92;;
55633;SDS011;41504;53.162;6.788;2022-08-01T07:03:47;13.60;;;3.22;;
55633;SDS011;41504;53.162;6.788;2022-08-01T07:06:12;12.88;;;3.08;;
55633;SDS011;41504;53.162;6.788;2022-08-01T07:08:40;12.75;;;3.05;;
55633;SDS011;41504;53.162;6.788;2022-08-01T07:11:05;11.95;;;2.65;;
55633;SDS011;41504;53.162;6.788;2022-08-01T07:13:31;10.68;;;2.42;;
55633;SDS011;41504;53.162;6.788;2022-08-01T07:15:57;14.30;;;3.38;;
55633;SDS011;41504;53.162;6.788;2022-08-01T07:18:23;15.20;;;3.20;;
55633;SDS011;41504;53.162;6.788;2022-08-01T07:20:49;11.73;;;3.22;;
55633;SDS011;41504;53.162;6.788;2022-08-01T07:23:15;10.68;;;2.67;;
55633;SDS011;41504;53.162;6.788;2022-08-01T07:25:42;10.15;;;3.00;;
55633;SDS011;41504;53.162;6.788;2022-08-01T07:28:07;10.55;;;2.67;;
55633;SDS011;41504;53.162;6.788;2022-08-01T07:30:33;12.25;;;2.90;;
55633;SDS011;41504;53.162;6.788;2022-08-01T07:32:59;10.32;;;2.70;;
55633;SDS011;41504;53.162;6.788;2022-08-01T07:35:25;15.25;;;2.80;;
55633;SDS011;41504;53.162;6.788;2022-08-01T07:37:51;11.40;;;2.63;;
55633;SDS011;41504;53.162;6.788;2022-08-01T07:40:18;9.88;;;2.60;;
55633;SDS011;41504;53.162;6.788;2022-08-01T07:42:45;10.75;;;2.83;;
55633;SDS011;41504;53.162;6.788;2022-08-01T07:45:12;11.35;;;2.83;;
55633;SDS011;41504;53.162;6.788;2022-08-01T07:47:38;14.00;;;2.88;;
55633;SDS011;41504;53.162;6.788;2022-08-01T07:50:04;12.25;;;2.55;;
55633;SDS011;41504;53.162;6.788;2022-08-01T07:52:31;10.43;;;2.42;;
55633;SDS011;41504;53.162;6.788;2022-08-01T07:54:57;14.77;;;2.80;;
55633;SDS011;41504;53.162;6.788;2022-08-01T07:57:24;7.53;;;2.05;;
55633;SDS011;41504;53.162;6.788;2022-08-01T07:59:50;11.05;;;2.50;;
55633;SDS011;41504;53.162;6.788;2022-08-01T08:02:16;10.95;;;2.55;;
55633;SDS011;41504;53.162;6.788;2022-08-01T08:04:42;15.57;;;3.08;;
55633;SDS011;41504;53.162;6.788;2022-08-01T08:07:07;11.38;;;2.85;;
55633;SDS011;41504;53.162;6.788;2022-08-01T08:09:33;12.73;;;2.35;;
55633;SDS011;41504;53.162;6.788;2022-08-01T08:12:08;13.30;;;2.58;;
55633;SDS011;41504;53.162;6.788;2022-08-01T08:14:34;12.90;;;2.70;;
55633;SDS011;41504;53.162;6.788;2022-08-01T08:17:00;10.60;;;3.10;;
55633;SDS011;41504;53.162;6.788;2022-08-01T08:19:25;12.50;;;2.97;;
55633;SDS011;41504;53.162;6.788;2022-08-01T08:21:51;9.60;;;2.40;;
55633;SDS011;41504;53.162;6.788;2022-08-01T08:24:17;14.32;;;2.38;;
55633;SDS011;41504;53.162;6.788;2022-08-01T08:26:50;9.73;;;2.15;;
55633;SDS011;41504;53.162;6.788;2022-08-01T08:29:19;10.65;;;2.70;;
55633;SDS011;41504;53.162;6.788;2022-08-01T08:31:45;9.63;;;2.50;;
55633;SDS011;41504;53.162;6.788;2022-08-01T08:34:11;7.60;;;2.05;;
55633;SDS011;41504;53.162;6.788;2022-08-01T08:36:37;10.13;;;2.30;;
55633;SDS011;41504;53.162;6.788;2022-08-01T08:39:06;9.90;;;2.60;;
55633;SDS011;41504;53.162;6.788;2022-08-01T08:41:33;12.55;;;2.20;;
55633;SDS011;41504;53.162;6.788;2022-08-01T08:44:03;9.38;;;2.10;;
55633;SDS011;41504;53.162;6.788;2022-08-01T08:46:29;9.38;;;2.20;;
55633;SDS011;41504;53.162;6.788;2022-08-01T08:48:58;10.25;;;2.20;;
55633;SDS011;41504;53.162;6.788;2022-08-01T08:51:25;9.98;;;2.30;;
55633;SDS011;41504;53.162;6.788;2022-08-01T08:53:59;9.65;;;2.25;;
55633;SDS011;41504;53.162;6.788;2022-08-01T08:56:30;9.63;;;2.33;;
55633;SDS011;41504;53.162;6.788;2022-08-01T08:58:59;6.70;;;1.90;;
55633;SDS011;41504;53.162;6.788;2022-08-01T09:01:26;9.32;;;2.00;;
55633;SDS011;41504;53.162;6.788;2022-08-01T09:03:55;10.13;;;2.40;;
55633;SDS011;41504;53.162;6.788;2022-08-01T09:06:21;10.68;;;2.10;;
55633;SDS011;41504;53.162;6.788;2022-08-01T09:08:47;10.63;;;2.45;;
55633;SDS011;41504;53.162;6.788;2022-08-01T09:11:12;8.77;;;1.90;;
55633;SDS011;41504;53.162;6.788;2022-08-01T09:13:38;8.90;;;2.00;;
55633;SDS011;41504;53.162;6.788;2022-08-01T09:16:04;14.43;;;2.40;;
55633;SDS011;41504;53.162;6.788;2022-08-01T09:18:37;9.73;;;2.15;;
55633;SDS011;41504;53.162;6.788;2022-08-01T09:23:46;10.52;;;2.03;;
55633;SDS011;41504;53.162;6.788;2022-08-01T09:29:17;10.05;;;2.13;;
55633;SDS011;41504;53.162;6.788;2022-08-01T09:31:45;5.88;;;1.98;;
55633;SDS011;41504;53.162;6.788;2022-08-01T09:34:11;11.32;;;2.40;;
55633;SDS011;41504;53.162;6.788;2022-08-01T09:39:17;9.68;;;2.05;;
55633;SDS011;41504;53.162;6.788;2022-08-01T09:41:48;7.75;;;2.03;;
55633;SDS011;41504;53.162;6.788;2022-08-01T09:44:14;7.72;;;2.00;;
55633;SDS011;41504;53.162;6.788;2022-08-01T09:46:52;9.25;;;2.22;;
55633;SDS011;41504;53.162;6.788;2022-08-01T09:49:35;7.95;;;2.10;;
55633;SDS011;41504;53.162;6.788;2022-08-01T09:54:43;9.02;;;1.90;;
55633;SDS011;41504;53.162;6.788;2022-08-01T09:57:17;8.35;;;1.88;;
55633;SDS011;41504;53.162;6.788;2022-08-01T09:59:49;8.65;;;1.90;;
55633;SDS011;41504;53.162;6.788;2022-08-01T10:04:53;8.55;;;2.72;;
55633;SDS011;41504;53.162;6.788;2022-08-01T10:07:20;8.82;;;2.17;;
55633;SDS011;41504;53.162;6.788;2022-08-01T10:09:47;8.68;;;1.77;;
55633;SDS011;41504;53.162;6.788;2022-08-01T10:12:14;7.25;;;1.80;;
55633;SDS011;41504;53.162;6.788;2022-08-01T10:14:45;7.13;;;1.80;;
55633;SDS011;41504;53.162;6.788;2022-08-01T10:17:20;10.95;;;1.83;;
55633;SDS011;41504;53.162;6.788;2022-08-01T10:19:50;6.20;;;1.70;;
55633;SDS011;41504;53.162;6.788;2022-08-01T10:22:19;7.43;;;1.90;;
55633;SDS011;41504;53.162;6.788;2022-08-01T10:24:48;9.20;;;1.90;;
55633;SDS011;41504;53.162;6.788;2022-08-01T10:27:18;7.15;;;1.70;;
55633;SDS011;41504;53.162;6.788;2022-08-01T10:32:22;7.53;;;1.80;;
55633;SDS011;41504;53.162;6.788;2022-08-01T10:34:52;5.68;;;1.70;;
55633;SDS011;41504;53.162;6.788;2022-08-01T10:37:19;7.90;;;1.88;;
55633;SDS011;41504;53.162;6.788;2022-08-01T10:39:46;6.38;;;1.60;;
55633;SDS011;41504;53.162;6.788;2022-08-01T10:42:12;6.65;;;1.65;;
55633;SDS011;41504;53.162;6.788;2022-08-01T10:44:38;7.07;;;1.90;;
55633;SDS011;41504;53.162;6.788;2022-08-01T10:47:09;7.45;;;1.60;;
55633;SDS011;41504;53.162;6.788;2022-08-01T10:49:43;7.55;;;1.60;;
55633;SDS011;41504;53.162;6.788;2022-08-01T10:52:19;9.02;;;1.83;;
55633;SDS011;41504;53.162;6.788;2022-08-01T10:54:45;6.47;;;1.60;;
55633;SDS011;41504;53.162;6.788;2022-08-01T10:57:12;8.35;;;2.33;;
55633;SDS011;41504;53.162;6.788;2022-08-01T10:59:48;5.32;;;1.90;;
55633;SDS011;41504;53.162;6.788;2022-08-01T11:02:25;8.05;;;1.80;;
55633;SDS011;41504;53.162;6.788;2022-08-01T11:05:12;7.47;;;1.60;;
55633;SDS011;41504;53.162;6.788;2022-08-01T11:07:47;6.47;;;1.88;;
55633;SDS011;41504;53.162;6.788;2022-08-01T11:12:54;7.88;;;1.90;;
55633;SDS011;41504;53.162;6.788;2022-08-01T11:15:20;7.20;;;1.95;;
55633;SDS011;41504;53.162;6.788;2022-08-01T11:17:54;6.88;;;1.80;;
55633;SDS011;41504;53.162;6.788;2022-08-01T11:20:30;9.65;;;1.85;;
55633;SDS011;41504;53.162;6.788;2022-08-01T11:26:11;9.30;;;2.38;;
55633;SDS011;41504;53.162;6.788;2022-08-01T11:30:44;8.00;;;1.80;;
55633;SDS011;41504;53.162;6.788;2022-08-01T11:33:11;6.75;;;1.83;;
55633;SDS011;41504;53.162;6.788;2022-08-01T11:36:16;6.50;;;1.60;;
55633;SDS011;41504;53.162;6.788;2022-08-01T11:43:57;6.50;;;1.77;;
55633;SDS011;41504;53.162;6.788;2022-08-01T11:54:34;5.28;;;1.45;;
55633;SDS011;41504;53.162;6.788;2022-08-01T11:57:01;9.13;;;1.55;;
55633;SDS011;41504;53.162;6.788;2022-08-01T11:59:36;5.22;;;1.40;;
55633;SDS011;41504;53.162;6.788;2022-08-01T12:02:26;7.03;;;1.88;;
55633;SDS011;41504;53.162;6.788;2022-08-01T12:05:09;6.97;;;2.08;;
55633;SDS011;41504;53.162;6.788;2022-08-01T12:07:37;6.97;;;1.35;;
55633;SDS011;41504;53.162;6.788;2022-08-01T12:10:08;5.82;;;1.40;;
55633;SDS011;41504;53.162;6.788;2022-08-01T12:12:51;8.45;;;1.38;;
55633;SDS011;41504;53.162;6.788;2022-08-01T12:15:19;8.65;;;1.52;;
55633;SDS011;41504;53.162;6.788;2022-08-01T12:18:05;6.22;;;2.10;;
55633;SDS011;41504;53.162;6.788;2022-08-01T12:20:32;5.05;;;1.50;;
55633;SDS011;41504;53.162;6.788;2022-08-01T12:23:10;5.47;;;1.48;;
55633;SDS011;41504;53.162;6.788;2022-08-01T12:25:41;7.82;;;1.95;;
55633;SDS011;41504;53.162;6.788;2022-08-01T12:28:13;4.30;;;1.50;;
55633;SDS011;41504;53.162;6.788;2022-08-01T12:30:39;5.63;;;1.70;;
55633;SDS011;41504;53.162;6.788;2022-08-01T12:33:06;6.15;;;1.40;;
55633;SDS011;41504;53.162;6.788;2022-08-01T12:35:34;4.97;;;1.40;;
55633;SDS011;41504;53.162;6.788;2022-08-01T12:38:04;7.55;;;1.70;;
55633;SDS011;41504;53.162;6.788;2022-08-01T12:40:52;4.30;;;1.40;;
55633;SDS011;41504;53.162;6.788;2022-08-01T12:43:20;4.07;;;1.40;;
55633;SDS011;41504;53.162;6.788;2022-08-01T12:45:49;7.88;;;1.48;;
55633;SDS011;41504;53.162;6.788;2022-08-01T12:48:16;6.22;;;1.70;;
55633;SDS011;41504;53.162;6.788;2022-08-01T12:50:49;7.55;;;1.40;;
55633;SDS011;41504;53.162;6.788;2022-08-01T12:53:17;5.30;;;1.70;;
55633;SDS011;41504;53.162;6.788;2022-08-01T12:55:47;6.10;;;1.33;;
55633;SDS011;41504;53.162;6.788;2022-08-01T12:58:16;5.23;;;1.37;;
55633;SDS011;41504;53.162;6.788;2022-08-01T13:00:44;6.88;;;1.30;;
55633;SDS011;41504;53.162;6.788;2022-08-01T13:03:13;5.50;;;1.60;;
55633;SDS011;41504;53.162;6.788;2022-08-01T13:05:47;5.95;;;1.63;;
55633;SDS011;41504;53.162;6.788;2022-08-01T13:08:21;10.63;;;1.75;;
55633;SDS011;41504;53.162;6.788;2022-08-01T13:11:00;7.80;;;1.60;;
55633;SDS011;41504;53.162;6.788;2022-08-01T13:13:38;7.43;;;1.42;;
55633;SDS011;41504;53.162;6.788;2022-08-01T13:16:21;4.43;;;1.30;;
55633;SDS011;41504;53.162;6.788;2022-08-01T13:18:52;5.22;;;1.67;;
55633;SDS011;41504;53.162;6.788;2022-08-01T13:21:20;4.10;;;1.27;;
55633;SDS011;41504;53.162;6.788;2022-08-01T13:29:11;5.63;;;1.52;;
55633;SDS011;41504;53.162;6.788;2022-08-01T13:31:39;5.18;;;1.65;;
55633;SDS011;41504;53.162;6.788;2022-08-01T13:34:05;5.38;;;1.60;;
55633;SDS011;41504;53.162;6.788;2022-08-01T13:36:31;5.57;;;1.40;;
55633;SDS011;41504;53.162;6.788;2022-08-01T13:38:58;5.65;;;1.52;;
55633;SDS011;41504;53.162;6.788;2022-08-01T13:41:42;4.88;;;1.50;;
55633;SDS011;41504;53.162;6.788;2022-08-01T13:44:09;5.22;;;1.30;;
55633;SDS011;41504;53.162;6.788;2022-08-01T13:46:39;9.00;;;1.60;;
55633;SDS011;41504;53.162;6.788;2022-08-01T13:49:06;6.47;;;1.55;;
55633;SDS011;41504;53.162;6.788;2022-08-01T13:51:33;5.50;;;1.35;;
55633;SDS011;41504;53.162;6.788;2022-08-01T13:53:59;6.68;;;1.65;;
55633;SDS011;41504;53.162;6.788;2022-08-01T13:56:24;11.60;;;2.30;;
55633;SDS011;41504;53.162;6.788;2022-08-01T13:58:53;4.03;;;1.77;;
55633;SDS011;41504;53.162;6.788;2022-08-01T14:01:22;3.88;;;1.27;;
55633;SDS011;41504;53.162;6.788;2022-08-01T14:03:49;5.32;;;1.60;;
55633;SDS011;41504;53.162;6.788;2022-08-01T14:06:16;6.47;;;1.70;;
55633;SDS011;41504;53.162;6.788;2022-08-01T14:08:43;4.80;;;1.60;;
55633;SDS011;41504;53.162;6.788;2022-08-01T14:11:09;8.30;;;2.00;;
55633;SDS011;41504;53.162;6.788;2022-08-01T14:13:35;4.82;;;1.65;;
55633;SDS011;41504;53.162;6.788;2022-08-01T14:16:05;6.20;;;1.50;;
55633;SDS011;41504;53.162;6.788;2022-08-01T14:18:31;6.97;;;1.50;;
55633;SDS011;41504;53.162;6.788;2022-08-01T14:21:06;6.25;;;1.50;;
55633;SDS011;41504;53.162;6.788;2022-08-01T14:23:32;3.97;;;1.40;;
55633;SDS011;41504;53.162;6.788;2022-08-01T14:25:58;6.22;;;1.85;;
55633;SDS011;41504;53.162;6.788;2022-08-01T14:28:23;6.13;;;1.50;;
55633;SDS011;41504;53.162;6.788;2022-08-01T14:30:52;7.75;;;1.75;;
55633;SDS011;41504;53.162;6.788;2022-08-01T14:33:18;5.95;;;1.77;;
55633;SDS011;41504;53.162;6.788;2022-08-01T14:35:43;8.48;;;1.70;;
55633;SDS011;41504;53.162;6.788;2022-08-01T14:38:09;7.18;;;1.50;;
55633;SDS011;41504;53.162;6.788;2022-08-01T14:40:35;5.65;;;1.70;;
55633;SDS011;41504;53.162;6.788;2022-08-01T14:43:01;5.20;;;1.48;;
55633;SDS011;41504;53.162;6.788;2022-08-01T14:45:27;7.53;;;1.70;;
55633;SDS011;41504;53.162;6.788;2022-08-01T14:47:53;6.38;;;1.65;;
55633;SDS011;41504;53.162;6.788;2022-08-01T14:50:19;7.53;;;1.63;;
55633;SDS011;41504;53.162;6.788;2022-08-01T14:52:45;6.25;;;1.40;;
55633;SDS011;41504;53.162;6.788;2022-08-01T14:55:11;7.70;;;1.70;;
55633;SDS011;41504;53.162;6.788;2022-08-01T14:57:38;7.25;;;1.80;;
55633;SDS011;41504;53.162;6.788;2022-08-01T15:00:05;6.32;;;1.42;;
55633;SDS011;41504;53.162;6.788;2022-08-01T15:02:35;6.28;;;1.33;;
55633;SDS011;41504;53.162;6.788;2022-08-01T15:05:00;6.13;;;2.00;;
55633;SDS011;41504;53.162;6.788;2022-08-01T15:07:29;3.72;;;1.38;;
55633;SDS011;41504;53.162;6.788;2022-08-01T15:09:55;4.95;;;1.67;;
55633;SDS011;41504;53.162;6.788;2022-08-01T15:12:22;5.90;;;1.40;;
55633;SDS011;41504;53.162;6.788;2022-08-01T15:14:47;5.35;;;1.35;;
55633;SDS011;41504;53.162;6.788;2022-08-01T15:17:14;6.82;;;1.42;;
55633;SDS011;41504;53.162;6.788;2022-08-01T15:19:40;5.95;;;1.75;;
55633;SDS011;41504;53.162;6.788;2022-08-01T15:22:06;6.75;;;1.50;;
55633;SDS011;41504;53.162;6.788;2022-08-01T15:24:32;6.82;;;1.50;;
55633;SDS011;41504;53.162;6.788;2022-08-01T15:26:57;6.28;;;1.67;;
55633;SDS011;41504;53.162;6.788;2022-08-01T15:29:23;6.13;;;1.48;;
55633;SDS011;41504;53.162;6.788;2022-08-01T15:31:49;7.30;;;1.65;;
55633;SDS011;41504;53.162;6.788;2022-08-01T15:34:15;7.25;;;1.95;;
55633;SDS011;41504;53.162;6.788;2022-08-01T15:36:41;4.45;;;1.40;;
55633;SDS011;41504;53.162;6.788;2022-08-01T15:39:08;7.25;;;1.52;;
55633;SDS011;41504;53.162;6.788;2022-08-01T15:41:34;6.88;;;1.52;;
55633;SDS011;41504;53.162;6.788;2022-08-01T15:44:03;4.85;;;1.60;;